West St. Catharines

*Note: All times are displayed in the local standard time of the station location.
**Rain - Equipment is designed to accurately record liquid precipitation; under conditions when precipitation is not in liquid form, the data displayed may not properly reflect rainfall values.

Date Max Temp
(°C)
Min Temp
(°C)
Avg Temp
(°C)
Rain (mm) Avg RH (%) Solar Rad (kJ/m2)
Tue, Oct 15, 2019 16.2 1.1 8.8 0.0 87.3 10513.0
Mon, Oct 14, 2019 11.8 2.5 8.3 0.0 86.2 7033.7
Sun, Oct 13, 2019 18.5 2.1 11.0 0.2 78.7 11882.4
Sat, Oct 12, 2019 15.7 1.8 11.2 0.4 88.8 9544.2
Fri, Oct 11, 2019 23.2 5.4 14.7 0.0 78.2 12519.2
Thu, Oct 10, 2019 19.9 2.9 10.5 0.0 91.2 12137.3
Wed, Oct 09, 2019 19.9 3.1 11.0 1.2 89.9 12582.6
DateTime Avg Temp (°C) Rain (mm) RH (%) Solar Rad (kJ/m2)
Wed, Oct 16, 2019 00:00 9.7 0.0 93.6 0.3
Tue, Oct 15, 2019 23:00 9.5 0.0 93.0 0.3
Tue, Oct 15, 2019 22:00 11.0 0.0 87.2 0.0
Tue, Oct 15, 2019 21:00 11.0 0.0 87.4 0.3
Tue, Oct 15, 2019 20:00 11.0 0.0 89.4 0.0
Tue, Oct 15, 2019 19:00 12.1 0.0 85.3 37.3
Tue, Oct 15, 2019 18:00 14.6 0.0 72.0 274.5
Tue, Oct 15, 2019 17:00 15.0 0.0 68.1 427.1
Tue, Oct 15, 2019 16:00 16.0 0.0 67.7 1296.0
Tue, Oct 15, 2019 15:00 16.1 0.0 69.3 1685.4
Tue, Oct 15, 2019 14:00 15.1 0.0 73.0 1486.4
Tue, Oct 15, 2019 13:00 15.1 0.0 72.0 1605.5
Tue, Oct 15, 2019 12:00 13.8 0.0 78.1 1288.9
Tue, Oct 15, 2019 11:00 12.2 0.0 73.8 1215.7
Tue, Oct 15, 2019 10:00 8.9 0.0 87.2 840.4
Tue, Oct 15, 2019 09:00 3.6 0.0 99.9 317.8
Tue, Oct 15, 2019 08:00 1.4 0.0 99.9 34.4
Tue, Oct 15, 2019 07:00 1.3 0.0 99.9 0.6
Tue, Oct 15, 2019 06:00 1.8 0.0 99.9 0.0
Tue, Oct 15, 2019 05:00 2.0 0.0 99.9 0.0
Tue, Oct 15, 2019 04:00 2.3 0.0 99.9 0.9
Tue, Oct 15, 2019 03:00 2.4 0.0 99.9 0.3
Tue, Oct 15, 2019 02:00 2.6 0.0 99.9 0.6
Tue, Oct 15, 2019 01:00 2.7 0.0 99.9 0.3
Tue, Oct 15, 2019 00:00 2.7 0.0 99.9 0.6
Mon, Oct 14, 2019 23:00 3.2 0.0 99.9 0.9
Mon, Oct 14, 2019 22:00 3.4 0.0 99.9 0.9
Mon, Oct 14, 2019 21:00 3.9 0.0 99.8 0.0
Mon, Oct 14, 2019 20:00 5.5 0.0 92.8 0.9
Mon, Oct 14, 2019 19:00 8.9 0.0 77.4 36.8
Mon, Oct 14, 2019 18:00 11.3 0.0 61.7 261.8
Mon, Oct 14, 2019 17:00 11.4 0.0 60.1 463.3
Mon, Oct 14, 2019 16:00 11.6 0.0 61.4 729.5
Mon, Oct 14, 2019 15:00 11.7 0.0 61.3 1041.6
Mon, Oct 14, 2019 14:00 11.1 0.0 66.6 973.6
Mon, Oct 14, 2019 13:00 11.6 0.0 67.4 1775.7
Mon, Oct 14, 2019 12:00 10.1 0.0 72.6 1091.7
Mon, Oct 14, 2019 11:00 8.6 0.0 82.5 389.2
Mon, Oct 14, 2019 10:00 8.2 0.0 87.9 177.2
Mon, Oct 14, 2019 09:00 8.0 0.0 91.4 76.2
Mon, Oct 14, 2019 08:00 7.9 0.0 92.8 10.8
Mon, Oct 14, 2019 07:00 8.3 0.0 93.3 0.9
Mon, Oct 14, 2019 06:00 7.9 0.0 99.9 0.6
Mon, Oct 14, 2019 05:00 8.2 0.0 99.9 0.9
Mon, Oct 14, 2019 04:00 8.4 0.0 99.9 0.3
Mon, Oct 14, 2019 03:00 8.8 0.0 99.9 0.0
Mon, Oct 14, 2019 02:00 8.9 0.0 99.9 0.0
Mon, Oct 14, 2019 01:00 9.4 0.0 99.9 0.3


asterix Register now to access more data! asterix